sensor_id;sensor_type;location;lat;lon;timestamp;temperature;humidity
7472;DHT22;3777;48.722;8.110;2023-09-19T00:00:38;18.40;99.90
7472;DHT22;3777;48.722;8.110;2023-09-19T00:03:06;18.30;99.90
7472;DHT22;3777;48.722;8.110;2023-09-19T00:05:36;18.30;99.90
7472;DHT22;3777;48.722;8.110;2023-09-19T00:08:05;18.30;99.90
7472;DHT22;3777;48.722;8.110;2023-09-19T00:10:33;18.30;99.90
7472;DHT22;3777;48.722;8.110;2023-09-19T00:13:02;18.30;99.90
7472;DHT22;3777;48.722;8.110;2023-09-19T00:15:35;18.20;99.90
7472;DHT22;3777;48.722;8.110;2023-09-19T00:18:03;18.20;99.90
7472;DHT22;3777;48.722;8.110;2023-09-19T00:20:32;18.10;99.90
7472;DHT22;3777;48.722;8.110;2023-09-19T00:23:01;18.20;99.90
7472;DHT22;3777;48.722;8.110;2023-09-19T00:25:34;18.20;99.90
7472;DHT22;3777;48.722;8.110;2023-09-19T00:28:02;18.20;99.90
7472;DHT22;3777;48.722;8.110;2023-09-19T00:30:30;18.30;99.90
7472;DHT22;3777;48.722;8.110;2023-09-19T00:32:57;18.30;99.90
7472;DHT22;3777;48.722;8.110;2023-09-19T00:35:24;18.20;99.90
7472;DHT22;3777;48.722;8.110;2023-09-19T00:37:51;18.20;99.90
7472;DHT22;3777;48.722;8.110;2023-09-19T00:40:20;18.20;99.90
7472;DHT22;3777;48.722;8.110;2023-09-19T00:42:48;18.10;99.90
7472;DHT22;3777;48.722;8.110;2023-09-19T00:45:16;18.10;99.90
7472;DHT22;3777;48.722;8.110;2023-09-19T00:47:45;17.90;99.90
7472;DHT22;3777;48.722;8.110;2023-09-19T00:50:15;17.90;99.90
7472;DHT22;3777;48.722;8.110;2023-09-19T00:52:43;17.80;99.90
7472;DHT22;3777;48.722;8.110;2023-09-19T00:55:11;17.70;99.90
7472;DHT22;3777;48.722;8.110;2023-09-19T00:57:41;17.80;99.90
7472;DHT22;3777;48.722;8.110;2023-09-19T01:00:10;17.70;99.90
7472;DHT22;3777;48.722;8.110;2023-09-19T01:02:41;17.60;99.90
7472;DHT22;3777;48.722;8.110;2023-09-19T01:05:09;17.60;99.90
7472;DHT22;3777;48.722;8.110;2023-09-19T01:07:36;17.60;99.90
7472;DHT22;3777;48.722;8.110;2023-09-19T01:10:07;17.60;99.90
7472;DHT22;3777;48.722;8.110;2023-09-19T01:12:47;17.70;99.90
7472;DHT22;3777;48.722;8.110;2023-09-19T01:15:21;17.60;99.90
7472;DHT22;3777;48.722;8.110;2023-09-19T01:17:59;17.60;99.90
7472;DHT22;3777;48.722;8.110;2023-09-19T01:20:36;17.60;99.90
7472;DHT22;3777;48.722;8.110;2023-09-19T01:23:12;17.70;99.90
7472;DHT22;3777;48.722;8.110;2023-09-19T01:26:06;17.80;99.90
7472;DHT22;3777;48.722;8.110;2023-09-19T01:28:53;17.90;99.90
7472;DHT22;3777;48.722;8.110;2023-09-19T01:31:25;18.00;99.90
7472;DHT22;3777;48.722;8.110;2023-09-19T01:33:57;18.00;99.90
7472;DHT22;3777;48.722;8.110;2023-09-19T01:36:25;18.00;99.90
7472;DHT22;3777;48.722;8.110;2023-09-19T01:38:53;18.00;99.90
7472;DHT22;3777;48.722;8.110;2023-09-19T01:41:25;18.10;99.90
7472;DHT22;3777;48.722;8.110;2023-09-19T01:43:52;18.10;99.90
7472;DHT22;3777;48.722;8.110;2023-09-19T01:46:23;18.10;99.90
7472;DHT22;3777;48.722;8.110;2023-09-19T01:49:00;18.20;99.90
7472;DHT22;3777;48.722;8.110;2023-09-19T01:51:34;18.20;99.90
7472;DHT22;3777;48.722;8.110;2023-09-19T01:54:09;18.30;99.90
7472;DHT22;3777;48.722;8.110;2023-09-19T01:56:42;18.30;99.90
7472;DHT22;3777;48.722;8.110;2023-09-19T01:59:13;18.40;99.90
7472;DHT22;3777;48.722;8.110;2023-09-19T02:01:44;18.40;99.90
7472;DHT22;3777;48.722;8.110;2023-09-19T02:04:13;18.50;99.90
7472;DHT22;3777;48.722;8.110;2023-09-19T02:06:40;18.60;99.90
7472;DHT22;3777;48.722;8.110;2023-09-19T02:09:07;18.70;99.90
7472;DHT22;3777;48.722;8.110;2023-09-19T02:11:34;18.70;99.90
7472;DHT22;3777;48.722;8.110;2023-09-19T02:14:02;18.70;99.90
7472;DHT22;3777;48.722;8.110;2023-09-19T02:16:30;18.80;99.90
7472;DHT22;3777;48.722;8.110;2023-09-19T02:18:56;18.80;99.90
7472;DHT22;3777;48.722;8.110;2023-09-19T02:21:26;18.80;99.90
7472;DHT22;3777;48.722;8.110;2023-09-19T02:23:55;18.80;99.90
7472;DHT22;3777;48.722;8.110;2023-09-19T02:26:21;18.90;99.90
7472;DHT22;3777;48.722;8.110;2023-09-19T02:28:50;18.90;99.90
7472;DHT22;3777;48.722;8.110;2023-09-19T02:31:18;19.00;99.90
7472;DHT22;3777;48.722;8.110;2023-09-19T02:33:45;19.00;99.90
7472;DHT22;3777;48.722;8.110;2023-09-19T02:36:12;19.00;99.90
7472;DHT22;3777;48.722;8.110;2023-09-19T02:38:44;19.10;99.90
7472;DHT22;3777;48.722;8.110;2023-09-19T02:41:11;19.00;99.90
7472;DHT22;3777;48.722;8.110;2023-09-19T02:43:38;19.00;99.90
7472;DHT22;3777;48.722;8.110;2023-09-19T02:46:05;19.00;99.90
7472;DHT22;3777;48.722;8.110;2023-09-19T02:48:32;19.10;99.90
7472;DHT22;3777;48.722;8.110;2023-09-19T02:51:00;19.10;99.90
7472;DHT22;3777;48.722;8.110;2023-09-19T02:53:27;19.10;99.90
7472;DHT22;3777;48.722;8.110;2023-09-19T02:55:55;19.10;99.90
7472;DHT22;3777;48.722;8.110;2023-09-19T02:58:22;19.10;99.90
7472;DHT22;3777;48.722;8.110;2023-09-19T03:00:50;19.10;99.90
7472;DHT22;3777;48.722;8.110;2023-09-19T03:03:17;19.10;99.90
7472;DHT22;3777;48.722;8.110;2023-09-19T03:05:44;19.10;99.90
7472;DHT22;3777;48.722;8.110;2023-09-19T03:08:12;19.10;99.90
7472;DHT22;3777;48.722;8.110;2023-09-19T03:10:42;19.10;99.90
7472;DHT22;3777;48.722;8.110;2023-09-19T03:13:10;19.10;99.90
7472;DHT22;3777;48.722;8.110;2023-09-19T03:15:41;19.00;99.90
7472;DHT22;3777;48.722;8.110;2023-09-19T03:18:09;19.00;99.90
7472;DHT22;3777;48.722;8.110;2023-09-19T03:20:36;19.00;99.90
7472;DHT22;3777;48.722;8.110;2023-09-19T03:23:04;19.00;99.90
7472;DHT22;3777;48.722;8.110;2023-09-19T03:25:33;19.00;99.90
7472;DHT22;3777;48.722;8.110;2023-09-19T03:28:00;18.90;99.90
7472;DHT22;3777;48.722;8.110;2023-09-19T03:30:32;18.80;99.90
7472;DHT22;3777;48.722;8.110;2023-09-19T03:33:00;18.80;99.90
7472;DHT22;3777;48.722;8.110;2023-09-19T03:35:27;18.80;99.90
7472;DHT22;3777;48.722;8.110;2023-09-19T03:37:54;18.80;99.90
7472;DHT22;3777;48.722;8.110;2023-09-19T03:40:21;18.80;99.90
7472;DHT22;3777;48.722;8.110;2023-09-19T03:42:49;18.80;99.90
7472;DHT22;3777;48.722;8.110;2023-09-19T03:45:16;18.70;99.90
7472;DHT22;3777;48.722;8.110;2023-09-19T03:47:45;18.70;99.90
7472;DHT22;3777;48.722;8.110;2023-09-19T03:50:13;18.70;99.90
7472;DHT22;3777;48.722;8.110;2023-09-19T03:52:42;18.70;99.90
7472;DHT22;3777;48.722;8.110;2023-09-19T03:55:09;18.70;99.90
7472;DHT22;3777;48.722;8.110;2023-09-19T03:57:36;18.80;99.90
7472;DHT22;3777;48.722;8.110;2023-09-19T04:00:04;18.80;99.90
7472;DHT22;3777;48.722;8.110;2023-09-19T04:02:37;18.80;99.90
7472;DHT22;3777;48.722;8.110;2023-09-19T04:05:05;18.70;99.90
7472;DHT22;3777;48.722;8.110;2023-09-19T04:07:33;18.50;99.90
7472;DHT22;3777;48.722;8.110;2023-09-19T04:10:00;18.60;99.90
7472;DHT22;3777;48.722;8.110;2023-09-19T04:12:26;18.60;99.90
7472;DHT22;3777;48.722;8.110;2023-09-19T04:14:53;18.60;99.90
7472;DHT22;3777;48.722;8.110;2023-09-19T04:17:20;18.60;99.90
7472;DHT22;3777;48.722;8.110;2023-09-19T04:19:47;18.60;99.90
7472;DHT22;3777;48.722;8.110;2023-09-19T04:22:15;18.60;99.90
7472;DHT22;3777;48.722;8.110;2023-09-19T04:24:41;18.60;99.90
7472;DHT22;3777;48.722;8.110;2023-09-19T04:27:08;18.60;99.90
7472;DHT22;3777;48.722;8.110;2023-09-19T04:29:37;18.50;99.90
7472;DHT22;3777;48.722;8.110;2023-09-19T04:32:05;18.50;99.90
7472;DHT22;3777;48.722;8.110;2023-09-19T04:34:33;18.50;99.90
7472;DHT22;3777;48.722;8.110;2023-09-19T04:37:00;18.50;99.90
7472;DHT22;3777;48.722;8.110;2023-09-19T04:39:29;18.50;99.90
7472;DHT22;3777;48.722;8.110;2023-09-19T04:41:55;18.50;99.90
7472;DHT22;3777;48.722;8.110;2023-09-19T04:44:23;18.40;99.90
7472;DHT22;3777;48.722;8.110;2023-09-19T04:46:50;18.40;99.90
7472;DHT22;3777;48.722;8.110;2023-09-19T04:49:17;18.30;99.90
7472;DHT22;3777;48.722;8.110;2023-09-19T04:51:44;18.30;99.90
7472;DHT22;3777;48.722;8.110;2023-09-19T04:54:12;18.30;99.90
7472;DHT22;3777;48.722;8.110;2023-09-19T04:56:41;18.30;99.90
7472;DHT22;3777;48.722;8.110;2023-09-19T04:59:08;18.20;99.90
7472;DHT22;3777;48.722;8.110;2023-09-19T05:01:36;18.20;99.90
7472;DHT22;3777;48.722;8.110;2023-09-19T05:04:03;18.20;99.90
7472;DHT22;3777;48.722;8.110;2023-09-19T05:06:30;18.10;99.90
7472;DHT22;3777;48.722;8.110;2023-09-19T05:09:00;18.10;99.90
7472;DHT22;3777;48.722;8.110;2023-09-19T05:11:30;18.10;99.90
7472;DHT22;3777;48.722;8.110;2023-09-19T05:13:59;18.20;99.90
7472;DHT22;3777;48.722;8.110;2023-09-19T05:16:29;18.20;99.90
7472;DHT22;3777;48.722;8.110;2023-09-19T05:18:56;18.20;99.90
7472;DHT22;3777;48.722;8.110;2023-09-19T05:21:23;18.20;99.90
7472;DHT22;3777;48.722;8.110;2023-09-19T05:23:51;18.10;99.90
7472;DHT22;3777;48.722;8.110;2023-09-19T05:26:18;17.90;99.90
7472;DHT22;3777;48.722;8.110;2023-09-19T05:28:45;17.60;99.90
7472;DHT22;3777;48.722;8.110;2023-09-19T05:31:14;17.40;99.90
7472;DHT22;3777;48.722;8.110;2023-09-19T05:33:42;17.40;99.90
7472;DHT22;3777;48.722;8.110;2023-09-19T05:36:09;17.30;99.90
7472;DHT22;3777;48.722;8.110;2023-09-19T05:38:37;17.30;99.90
7472;DHT22;3777;48.722;8.110;2023-09-19T05:41:06;17.30;99.90
7472;DHT22;3777;48.722;8.110;2023-09-19T05:43:33;17.20;99.90
7472;DHT22;3777;48.722;8.110;2023-09-19T05:46:02;17.20;99.90
7472;DHT22;3777;48.722;8.110;2023-09-19T05:48:31;17.20;99.90
7472;DHT22;3777;48.722;8.110;2023-09-19T05:50:58;17.20;99.90
7472;DHT22;3777;48.722;8.110;2023-09-19T05:53:27;17.20;99.90
7472;DHT22;3777;48.722;8.110;2023-09-19T05:55:54;17.30;99.90
7472;DHT22;3777;48.722;8.110;2023-09-19T05:58:21;17.20;99.90
7472;DHT22;3777;48.722;8.110;2023-09-19T06:00:48;17.30;99.90
7472;DHT22;3777;48.722;8.110;2023-09-19T06:03:15;17.40;99.90
7472;DHT22;3777;48.722;8.110;2023-09-19T06:05:44;17.50;99.90
7472;DHT22;3777;48.722;8.110;2023-09-19T06:08:11;17.60;99.90
7472;DHT22;3777;48.722;8.110;2023-09-19T06:10:38;17.70;99.90
7472;DHT22;3777;48.722;8.110;2023-09-19T06:13:05;17.70;99.90
7472;DHT22;3777;48.722;8.110;2023-09-19T06:15:35;17.90;99.90
7472;DHT22;3777;48.722;8.110;2023-09-19T06:18:02;17.90;99.90
7472;DHT22;3777;48.722;8.110;2023-09-19T06:20:30;17.90;99.90
7472;DHT22;3777;48.722;8.110;2023-09-19T06:23:00;17.90;99.90
7472;DHT22;3777;48.722;8.110;2023-09-19T06:25:27;18.00;99.90
7472;DHT22;3777;48.722;8.110;2023-09-19T06:27:54;17.90;99.90
7472;DHT22;3777;48.722;8.110;2023-09-19T06:30:22;18.10;99.90
7472;DHT22;3777;48.722;8.110;2023-09-19T06:32:49;18.30;99.90
7472;DHT22;3777;48.722;8.110;2023-09-19T06:35:16;18.40;99.90
7472;DHT22;3777;48.722;8.110;2023-09-19T06:37:43;18.50;99.90
7472;DHT22;3777;48.722;8.110;2023-09-19T06:40:12;18.60;99.90
7472;DHT22;3777;48.722;8.110;2023-09-19T06:42:40;18.70;99.90
7472;DHT22;3777;48.722;8.110;2023-09-19T06:45:08;18.80;99.90
7472;DHT22;3777;48.722;8.110;2023-09-19T06:47:37;18.90;99.90
7472;DHT22;3777;48.722;8.110;2023-09-19T06:50:04;19.00;99.90
7472;DHT22;3777;48.722;8.110;2023-09-19T06:52:35;19.20;99.90
7472;DHT22;3777;48.722;8.110;2023-09-19T06:55:01;19.30;99.90
7472;DHT22;3777;48.722;8.110;2023-09-19T06:57:31;19.30;99.90
7472;DHT22;3777;48.722;8.110;2023-09-19T06:59:58;19.40;99.90
7472;DHT22;3777;48.722;8.110;2023-09-19T07:02:26;19.40;99.90
7472;DHT22;3777;48.722;8.110;2023-09-19T07:04:53;19.30;99.90
7472;DHT22;3777;48.722;8.110;2023-09-19T07:07:20;19.30;99.90
7472;DHT22;3777;48.722;8.110;2023-09-19T07:09:47;19.40;99.90
7472;DHT22;3777;48.722;8.110;2023-09-19T07:12:14;19.40;99.90
7472;DHT22;3777;48.722;8.110;2023-09-19T07:14:43;19.50;99.90
7472;DHT22;3777;48.722;8.110;2023-09-19T07:17:10;19.50;99.90
7472;DHT22;3777;48.722;8.110;2023-09-19T07:19:37;19.60;99.90
7472;DHT22;3777;48.722;8.110;2023-09-19T07:22:04;19.70;99.90
7472;DHT22;3777;48.722;8.110;2023-09-19T07:24:32;19.70;99.90
7472;DHT22;3777;48.722;8.110;2023-09-19T07:26:58;19.80;99.90
7472;DHT22;3777;48.722;8.110;2023-09-19T07:29:25;20.00;99.90
7472;DHT22;3777;48.722;8.110;2023-09-19T07:31:54;20.10;99.90
7472;DHT22;3777;48.722;8.110;2023-09-19T07:34:20;20.30;99.90
7472;DHT22;3777;48.722;8.110;2023-09-19T07:36:48;20.40;99.90
7472;DHT22;3777;48.722;8.110;2023-09-19T07:39:15;20.20;99.90
7472;DHT22;3777;48.722;8.110;2023-09-19T07:41:42;20.30;99.90
7472;DHT22;3777;48.722;8.110;2023-09-19T07:44:09;20.30;99.90
7472;DHT22;3777;48.722;8.110;2023-09-19T07:46:36;20.40;99.90
7472;DHT22;3777;48.722;8.110;2023-09-19T07:49:04;20.40;99.90
7472;DHT22;3777;48.722;8.110;2023-09-19T07:51:31;20.40;99.90
7472;DHT22;3777;48.722;8.110;2023-09-19T07:53:59;20.40;99.90
7472;DHT22;3777;48.722;8.110;2023-09-19T07:56:26;20.50;99.90
7472;DHT22;3777;48.722;8.110;2023-09-19T07:58:53;20.60;99.90
7472;DHT22;3777;48.722;8.110;2023-09-19T08:01:20;20.70;99.90
7472;DHT22;3777;48.722;8.110;2023-09-19T08:03:49;20.80;99.90
7472;DHT22;3777;48.722;8.110;2023-09-19T08:06:17;21.00;99.90
7472;DHT22;3777;48.722;8.110;2023-09-19T08:08:44;21.20;99.90
7472;DHT22;3777;48.722;8.110;2023-09-19T08:11:11;21.20;99.90
7472;DHT22;3777;48.722;8.110;2023-09-19T08:13:38;21.30;99.90
7472;DHT22;3777;48.722;8.110;2023-09-19T08:16:08;21.40;99.90
7472;DHT22;3777;48.722;8.110;2023-09-19T08:18:35;21.60;99.90
7472;DHT22;3777;48.722;8.110;2023-09-19T08:21:03;21.60;99.90
7472;DHT22;3777;48.722;8.110;2023-09-19T08:23:31;21.80;99.90
7472;DHT22;3777;48.722;8.110;2023-09-19T08:25:58;21.90;99.90
7472;DHT22;3777;48.722;8.110;2023-09-19T08:28:28;22.10;99.90
7472;DHT22;3777;48.722;8.110;2023-09-19T08:30:55;22.00;99.90
7472;DHT22;3777;48.722;8.110;2023-09-19T08:33:23;22.10;99.90
7472;DHT22;3777;48.722;8.110;2023-09-19T08:35:50;22.30;99.90
7472;DHT22;3777;48.722;8.110;2023-09-19T08:38:17;22.40;99.90
7472;DHT22;3777;48.722;8.110;2023-09-19T08:40:45;22.60;99.90
7472;DHT22;3777;48.722;8.110;2023-09-19T08:43:12;22.70;99.90
7472;DHT22;3777;48.722;8.110;2023-09-19T08:45:39;23.00;99.90
7472;DHT22;3777;48.722;8.110;2023-09-19T08:48:17;23.20;99.90
7472;DHT22;3777;48.722;8.110;2023-09-19T08:50:49;23.50;99.90
7472;DHT22;3777;48.722;8.110;2023-09-19T08:53:21;23.80;99.90
7472;DHT22;3777;48.722;8.110;2023-09-19T08:55:54;24.00;99.90
7472;DHT22;3777;48.722;8.110;2023-09-19T08:58:26;24.30;99.90
7472;DHT22;3777;48.722;8.110;2023-09-19T09:00:55;24.50;99.90
7472;DHT22;3777;48.722;8.110;2023-09-19T09:03:23;24.50;99.90
7472;DHT22;3777;48.722;8.110;2023-09-19T09:05:51;24.70;99.90
7472;DHT22;3777;48.722;8.110;2023-09-19T09:08:19;24.80;99.90
7472;DHT22;3777;48.722;8.110;2023-09-19T09:10:47;24.80;99.90
7472;DHT22;3777;48.722;8.110;2023-09-19T09:13:17;24.80;99.90
7472;DHT22;3777;48.722;8.110;2023-09-19T09:15:44;24.70;99.90
7472;DHT22;3777;48.722;8.110;2023-09-19T09:18:11;24.50;99.90
7472;DHT22;3777;48.722;8.110;2023-09-19T09:20:38;24.60;99.90
7472;DHT22;3777;48.722;8.110;2023-09-19T09:23:05;24.80;99.90
7472;DHT22;3777;48.722;8.110;2023-09-19T09:25:48;24.50;99.90
7472;DHT22;3777;48.722;8.110;2023-09-19T09:28:21;24.60;99.90
7472;DHT22;3777;48.722;8.110;2023-09-19T09:30:48;24.80;99.90
7472;DHT22;3777;48.722;8.110;2023-09-19T09:33:16;25.40;99.90
7472;DHT22;3777;48.722;8.110;2023-09-19T09:35:51;25.80;99.90
7472;DHT22;3777;48.722;8.110;2023-09-19T09:38:19;25.70;99.90
7472;DHT22;3777;48.722;8.110;2023-09-19T09:40:47;25.50;99.90
7472;DHT22;3777;48.722;8.110;2023-09-19T09:43:30;25.30;99.90
7472;DHT22;3777;48.722;8.110;2023-09-19T09:46:12;25.00;99.90
7472;DHT22;3777;48.722;8.110;2023-09-19T09:48:57;24.90;99.90
7472;DHT22;3777;48.722;8.110;2023-09-19T09:51:38;25.50;99.90
7472;DHT22;3777;48.722;8.110;2023-09-19T09:54:12;26.40;99.90
7472;DHT22;3777;48.722;8.110;2023-09-19T09:56:53;27.10;99.90
7472;DHT22;3777;48.722;8.110;2023-09-19T09:59:44;27.40;99.90
7472;DHT22;3777;48.722;8.110;2023-09-19T10:02:13;27.50;99.90
7472;DHT22;3777;48.722;8.110;2023-09-19T10:04:41;27.30;99.90
7472;DHT22;3777;48.722;8.110;2023-09-19T10:07:25;27.10;99.90
7472;DHT22;3777;48.722;8.110;2023-09-19T10:09:53;26.50;99.90
7472;DHT22;3777;48.722;8.110;2023-09-19T10:12:25;26.40;99.90
7472;DHT22;3777;48.722;8.110;2023-09-19T10:14:57;26.20;99.90
7472;DHT22;3777;48.722;8.110;2023-09-19T10:17:29;25.90;99.90
7472;DHT22;3777;48.722;8.110;2023-09-19T10:19:58;25.90;99.90
7472;DHT22;3777;48.722;8.110;2023-09-19T10:22:31;25.70;99.90
7472;DHT22;3777;48.722;8.110;2023-09-19T10:24:59;25.50;99.90
7472;DHT22;3777;48.722;8.110;2023-09-19T10:27:29;25.90;99.90
7472;DHT22;3777;48.722;8.110;2023-09-19T10:30:05;26.20;99.90
7472;DHT22;3777;48.722;8.110;2023-09-19T10:32:35;26.10;99.90
7472;DHT22;3777;48.722;8.110;2023-09-19T10:35:02;25.90;99.90
7472;DHT22;3777;48.722;8.110;2023-09-19T10:37:32;25.60;99.90
7472;DHT22;3777;48.722;8.110;2023-09-19T10:40:00;26.00;99.90
7472;DHT22;3777;48.722;8.110;2023-09-19T10:42:28;26.90;99.90
7472;DHT22;3777;48.722;8.110;2023-09-19T10:45:00;28.30;99.90
7472;DHT22;3777;48.722;8.110;2023-09-19T10:47:34;28.90;99.90
7472;DHT22;3777;48.722;8.110;2023-09-19T10:50:03;29.00;99.90
7472;DHT22;3777;48.722;8.110;2023-09-19T10:52:40;29.70;99.90
7472;DHT22;3777;48.722;8.110;2023-09-19T10:55:08;30.90;99.00
7472;DHT22;3777;48.722;8.110;2023-09-19T10:57:36;30.30;99.20
7472;DHT22;3777;48.722;8.110;2023-09-19T11:00:05;30.40;99.30
7472;DHT22;3777;48.722;8.110;2023-09-19T11:03:18;31.30;96.50
7472;DHT22;3777;48.722;8.110;2023-09-19T11:06:07;30.70;94.40
7472;DHT22;3777;48.722;8.110;2023-09-19T11:08:52;29.60;92.10
7472;DHT22;3777;48.722;8.110;2023-09-19T11:11:43;28.90;93.80
7472;DHT22;3777;48.722;8.110;2023-09-19T11:14:15;29.10;95.40
7472;DHT22;3777;48.722;8.110;2023-09-19T11:20:18;28.90;93.50
7472;DHT22;3777;48.722;8.110;2023-09-19T11:23:21;28.70;91.10
7472;DHT22;3777;48.722;8.110;2023-09-19T11:25:51;28.20;93.30
7472;DHT22;3777;48.722;8.110;2023-09-19T11:28:29;27.90;93.30
7472;DHT22;3777;48.722;8.110;2023-09-19T11:30:56;27.40;94.40
7472;DHT22;3777;48.722;8.110;2023-09-19T11:33:25;27.10;94.10
7472;DHT22;3777;48.722;8.110;2023-09-19T11:36:05;26.90;95.10
7472;DHT22;3777;48.722;8.110;2023-09-19T11:38:57;26.70;96.70
7472;DHT22;3777;48.722;8.110;2023-09-19T11:41:39;26.50;97.50
7472;DHT22;3777;48.722;8.110;2023-09-19T11:44:32;26.40;99.10
7472;DHT22;3777;48.722;8.110;2023-09-19T11:47:00;26.30;99.90
7472;DHT22;3777;48.722;8.110;2023-09-19T11:49:30;26.30;98.10
7472;DHT22;3777;48.722;8.110;2023-09-19T11:51:59;26.10;98.90
7472;DHT22;3777;48.722;8.110;2023-09-19T11:54:30;25.90;98.30
7472;DHT22;3777;48.722;8.110;2023-09-19T11:56:58;26.00;99.40
7472;DHT22;3777;48.722;8.110;2023-09-19T11:59:27;25.80;99.30
7472;DHT22;3777;48.722;8.110;2023-09-19T12:01:55;25.80;99.70
7472;DHT22;3777;48.722;8.110;2023-09-19T12:04:37;25.90;99.90
7472;DHT22;3777;48.722;8.110;2023-09-19T12:07:07;25.90;99.90
7472;DHT22;3777;48.722;8.110;2023-09-19T12:09:39;25.80;99.90
7472;DHT22;3777;48.722;8.110;2023-09-19T12:12:06;25.60;99.40
7472;DHT22;3777;48.722;8.110;2023-09-19T12:14:33;25.60;99.80
7472;DHT22;3777;48.722;8.110;2023-09-19T12:17:00;25.60;99.90
7472;DHT22;3777;48.722;8.110;2023-09-19T12:19:29;25.60;99.90
7472;DHT22;3777;48.722;8.110;2023-09-19T12:21:57;25.70;99.90
7472;DHT22;3777;48.722;8.110;2023-09-19T12:24:26;25.60;99.90
7472;DHT22;3777;48.722;8.110;2023-09-19T12:27:00;25.60;99.90
7472;DHT22;3777;48.722;8.110;2023-09-19T12:29:30;25.60;99.90
7472;DHT22;3777;48.722;8.110;2023-09-19T12:31:58;25.60;99.90
7472;DHT22;3777;48.722;8.110;2023-09-19T12:34:30;25.60;97.80
7472;DHT22;3777;48.722;8.110;2023-09-19T12:37:07;25.70;99.00
7472;DHT22;3777;48.722;8.110;2023-09-19T12:39:40;25.60;99.20
7472;DHT22;3777;48.722;8.110;2023-09-19T12:42:12;25.70;98.00
7472;DHT22;3777;48.722;8.110;2023-09-19T12:44:41;25.80;98.00
7472;DHT22;3777;48.722;8.110;2023-09-19T12:47:10;25.80;98.40
7472;DHT22;3777;48.722;8.110;2023-09-19T12:50:11;25.90;97.60
7472;DHT22;3777;48.722;8.110;2023-09-19T12:52:44;25.90;98.50
7472;DHT22;3777;48.722;8.110;2023-09-19T12:55:28;25.90;99.10
7472;DHT22;3777;48.722;8.110;2023-09-19T12:58:11;26.00;99.10
7472;DHT22;3777;48.722;8.110;2023-09-19T13:00:39;26.10;96.60
7472;DHT22;3777;48.722;8.110;2023-09-19T13:03:16;26.20;96.10
7472;DHT22;3777;48.722;8.110;2023-09-19T13:05:54;26.10;97.40
7472;DHT22;3777;48.722;8.110;2023-09-19T13:08:24;26.00;96.30
7472;DHT22;3777;48.722;8.110;2023-09-19T13:11:09;25.90;95.20
7472;DHT22;3777;48.722;8.110;2023-09-19T13:13:40;25.80;97.70
7472;DHT22;3777;48.722;8.110;2023-09-19T13:16:07;25.70;97.80
7472;DHT22;3777;48.722;8.110;2023-09-19T13:18:44;25.70;98.10
7472;DHT22;3777;48.722;8.110;2023-09-19T13:21:12;25.60;97.80
7472;DHT22;3777;48.722;8.110;2023-09-19T13:23:42;25.50;98.70
7472;DHT22;3777;48.722;8.110;2023-09-19T13:26:10;25.40;97.80
7472;DHT22;3777;48.722;8.110;2023-09-19T13:28:38;25.30;98.60
7472;DHT22;3777;48.722;8.110;2023-09-19T13:31:05;25.20;96.90
7472;DHT22;3777;48.722;8.110;2023-09-19T13:33:33;25.10;99.70
7472;DHT22;3777;48.722;8.110;2023-09-19T13:36:01;25.20;99.90
7472;DHT22;3777;48.722;8.110;2023-09-19T13:38:28;25.20;99.90
7472;DHT22;3777;48.722;8.110;2023-09-19T13:40:55;25.20;99.90
7472;DHT22;3777;48.722;8.110;2023-09-19T13:43:23;25.20;99.50
7472;DHT22;3777;48.722;8.110;2023-09-19T13:45:50;25.10;99.90
7472;DHT22;3777;48.722;8.110;2023-09-19T13:48:17;25.20;99.30
7472;DHT22;3777;48.722;8.110;2023-09-19T13:50:48;25.10;99.90
7472;DHT22;3777;48.722;8.110;2023-09-19T13:53:14;25.10;99.90
7472;DHT22;3777;48.722;8.110;2023-09-19T13:55:42;25.10;99.90
7472;DHT22;3777;48.722;8.110;2023-09-19T13:58:09;25.00;99.90
7472;DHT22;3777;48.722;8.110;2023-09-19T14:00:38;24.90;99.90
7472;DHT22;3777;48.722;8.110;2023-09-19T14:03:05;24.90;99.90
7472;DHT22;3777;48.722;8.110;2023-09-19T14:05:32;24.80;99.90
7472;DHT22;3777;48.722;8.110;2023-09-19T14:07:59;24.80;99.90
7472;DHT22;3777;48.722;8.110;2023-09-19T14:10:26;24.70;99.90
7472;DHT22;3777;48.722;8.110;2023-09-19T14:12:55;24.70;99.90
7472;DHT22;3777;48.722;8.110;2023-09-19T14:15:23;24.60;99.90
7472;DHT22;3777;48.722;8.110;2023-09-19T14:17:56;24.60;99.90
7472;DHT22;3777;48.722;8.110;2023-09-19T14:20:24;24.70;99.90
7472;DHT22;3777;48.722;8.110;2023-09-19T14:22:52;24.80;99.90
7472;DHT22;3777;48.722;8.110;2023-09-19T14:25:19;24.90;99.90
7472;DHT22;3777;48.722;8.110;2023-09-19T14:27:46;25.00;99.90
7472;DHT22;3777;48.722;8.110;2023-09-19T14:30:14;24.90;99.90
7472;DHT22;3777;48.722;8.110;2023-09-19T14:32:41;24.80;99.90
7472;DHT22;3777;48.722;8.110;2023-09-19T14:35:09;24.80;99.90
7472;DHT22;3777;48.722;8.110;2023-09-19T14:37:36;24.80;99.90
7472;DHT22;3777;48.722;8.110;2023-09-19T14:40:06;24.80;99.90
7472;DHT22;3777;48.722;8.110;2023-09-19T14:42:34;24.90;99.90
7472;DHT22;3777;48.722;8.110;2023-09-19T14:45:02;24.80;99.90
7472;DHT22;3777;48.722;8.110;2023-09-19T14:47:30;24.90;99.90
7472;DHT22;3777;48.722;8.110;2023-09-19T14:49:57;24.90;99.90
7472;DHT22;3777;48.722;8.110;2023-09-19T14:52:26;25.00;99.90
7472;DHT22;3777;48.722;8.110;2023-09-19T14:54:54;25.10;99.90
7472;DHT22;3777;48.722;8.110;2023-09-19T14:57:21;25.10;99.90
7472;DHT22;3777;48.722;8.110;2023-09-19T14:59:49;25.20;99.90
7472;DHT22;3777;48.722;8.110;2023-09-19T15:02:16;25.20;99.90
7472;DHT22;3777;48.722;8.110;2023-09-19T15:04:43;25.20;99.90
7472;DHT22;3777;48.722;8.110;2023-09-19T15:07:12;25.20;99.90
7472;DHT22;3777;48.722;8.110;2023-09-19T15:09:41;25.20;99.90
7472;DHT22;3777;48.722;8.110;2023-09-19T15:12:09;25.10;99.90
7472;DHT22;3777;48.722;8.110;2023-09-19T15:14:40;25.10;99.90
7472;DHT22;3777;48.722;8.110;2023-09-19T15:17:07;25.10;99.90
7472;DHT22;3777;48.722;8.110;2023-09-19T15:19:34;25.00;99.90
7472;DHT22;3777;48.722;8.110;2023-09-19T15:22:03;25.00;99.90
7472;DHT22;3777;48.722;8.110;2023-09-19T15:24:30;25.00;99.90
7472;DHT22;3777;48.722;8.110;2023-09-19T15:26:58;25.10;99.90
7472;DHT22;3777;48.722;8.110;2023-09-19T15:29:25;25.10;99.90
7472;DHT22;3777;48.722;8.110;2023-09-19T15:31:53;25.10;99.90
7472;DHT22;3777;48.722;8.110;2023-09-19T15:34:20;25.10;99.90
7472;DHT22;3777;48.722;8.110;2023-09-19T15:36:47;25.00;99.90
7472;DHT22;3777;48.722;8.110;2023-09-19T15:39:14;24.90;99.90
7472;DHT22;3777;48.722;8.110;2023-09-19T15:41:45;24.80;99.90
7472;DHT22;3777;48.722;8.110;2023-09-19T15:44:15;24.70;99.90
7472;DHT22;3777;48.722;8.110;2023-09-19T15:46:42;24.60;99.90
7472;DHT22;3777;48.722;8.110;2023-09-19T15:49:09;24.50;99.90
7472;DHT22;3777;48.722;8.110;2023-09-19T15:51:37;24.40;99.90
7472;DHT22;3777;48.722;8.110;2023-09-19T15:54:08;24.40;99.90
7472;DHT22;3777;48.722;8.110;2023-09-19T15:56:35;24.40;99.90
7472;DHT22;3777;48.722;8.110;2023-09-19T15:59:02;24.40;99.90
7472;DHT22;3777;48.722;8.110;2023-09-19T16:01:31;24.30;99.90
7472;DHT22;3777;48.722;8.110;2023-09-19T16:03:58;24.20;99.90
7472;DHT22;3777;48.722;8.110;2023-09-19T16:06:26;24.20;99.90
7472;DHT22;3777;48.722;8.110;2023-09-19T16:08:54;24.20;99.90
7472;DHT22;3777;48.722;8.110;2023-09-19T16:11:24;24.20;99.90
7472;DHT22;3777;48.722;8.110;2023-09-19T16:13:52;24.10;99.90
7472;DHT22;3777;48.722;8.110;2023-09-19T16:16:20;24.00;99.90
7472;DHT22;3777;48.722;8.110;2023-09-19T16:18:50;24.00;99.90
7472;DHT22;3777;48.722;8.110;2023-09-19T16:21:23;24.00;99.90